createdAt,value
2018-10-07T00:01:10.054Z,100526.85
2018-10-07T00:03:39.459Z,100533.50
2018-10-07T00:06:09.828Z,100537.20
2018-10-07T00:08:39.108Z,100540.57
2018-10-07T00:11:11.041Z,100552.36
2018-10-07T00:13:45.591Z,100558.27
2018-10-07T00:16:33.626Z,100560.88
2018-10-07T00:19:05.765Z,100568.27
2018-10-07T00:21:35.861Z,100574.70
2018-10-07T00:24:07.421Z,100588.60
2018-10-07T00:26:39.925Z,100588.73
2018-10-07T00:29:09.497Z,100584.61
2018-10-07T00:31:44.151Z,100590.06
2018-10-07T00:34:13.557Z,100596.81
2018-10-07T00:36:42.922Z,100599.95
2018-10-07T00:39:12.668Z,100604.28
2018-10-07T00:41:42.125Z,100605.36
2018-10-07T00:44:11.822Z,100607.03
2018-10-07T00:46:41.352Z,100607.61
2018-10-07T00:49:12.869Z,100610.84
2018-10-07T00:51:42.401Z,100617.73
2018-10-07T00:54:12.471Z,100622.30
2018-10-07T00:56:43.536Z,100637.16
2018-10-07T00:59:13.112Z,100652.08
2018-10-07T01:01:42.418Z,100659.89
2018-10-07T01:04:11.840Z,100663.16
2018-10-07T01:06:41.312Z,100661.55
2018-10-07T01:09:12.176Z,100662.66
2018-10-07T01:11:42.890Z,100669.53
2018-10-07T01:14:12.405Z,100686.19
2018-10-07T01:16:41.886Z,100683.12
2018-10-07T01:19:11.286Z,100682.91
2018-10-07T01:21:40.867Z,100687.69
2018-10-07T01:24:10.260Z,100696.32
2018-10-07T01:26:39.726Z,100701.33
2018-10-07T01:29:10.699Z,100703.12
2018-10-07T01:31:40.903Z,100710.36
2018-10-07T01:34:12.137Z,100713.30
2018-10-07T01:36:42.029Z,100720.75
2018-10-07T01:39:12.230Z,100726.18
2018-10-07T01:41:41.757Z,100727.27
2018-10-07T01:44:11.521Z,100718.87
2018-10-07T01:46:41.294Z,100722.12
2018-10-07T01:49:11.606Z,100716.50
2018-10-07T01:51:41.459Z,100717.18
2018-10-07T01:54:22.755Z,100713.25
2018-10-07T01:56:53.594Z,100712.70
2018-10-07T01:59:23.008Z,100712.81
2018-10-07T02:01:52.333Z,100713.02
2018-10-07T02:04:21.854Z,100700.61
2018-10-07T02:06:51.350Z,100704.02
2018-10-07T02:09:20.888Z,100698.55
2018-10-07T02:11:50.587Z,100691.91
2018-10-07T02:14:21.922Z,100675.55
2018-10-07T02:16:51.620Z,100673.06
2018-10-07T02:19:23.437Z,100680.17
2018-10-07T02:21:54.847Z,100681.34
2018-10-07T02:24:24.992Z,100682.78
2018-10-07T02:26:54.606Z,100677.52
2018-10-07T02:29:24.356Z,100664.89
2018-10-07T02:31:54.640Z,100661.33
2018-10-07T02:34:24.362Z,100671.70
2018-10-07T02:36:53.756Z,100673.97
2018-10-07T02:39:23.731Z,100671.09
2018-10-07T02:41:53.694Z,100670.63
2018-10-07T02:44:23.488Z,100685.25
2018-10-07T02:46:53.396Z,100684.78
2018-10-07T02:49:23.085Z,100677.74
2018-10-07T02:51:52.970Z,100673.03
2018-10-07T02:54:23.448Z,100671.70
2018-10-07T02:56:54.060Z,100666.91
2018-10-07T02:59:24.568Z,100659.39
2018-10-07T03:01:54.448Z,100658.17
2018-10-07T03:04:25.731Z,100661.61
2018-10-07T03:06:55.718Z,100660.80
2018-10-07T03:09:25.854Z,100664.41
2018-10-07T03:11:56.053Z,100680.16
2018-10-07T03:14:26.212Z,100693.36
2018-10-07T03:16:57.108Z,100700.04
2018-10-07T03:19:26.680Z,100705.98
2018-10-07T03:21:56.474Z,100714.55
2018-10-07T03:24:25.975Z,100721.60
2018-10-07T03:26:56.100Z,100722.13
2018-10-07T03:29:25.756Z,100729.64
2018-10-07T03:31:55.842Z,100744.35
2018-10-07T03:34:26.605Z,100741.23
2018-10-07T03:36:57.406Z,100742.05
2018-10-07T03:39:30.042Z,100739.50
2018-10-07T03:42:01.726Z,100743.22
2018-10-07T03:44:33.101Z,100738.47
2018-10-07T03:47:03.917Z,100751.75
2018-10-07T03:49:34.618Z,100748.00
2018-10-07T03:52:06.885Z,100755.47
2018-10-07T03:54:38.185Z,100767.91
2018-10-07T03:57:07.518Z,100772.09
2018-10-07T03:59:37.434Z,100775.42
2018-10-07T04:02:06.982Z,100779.11
2018-10-07T04:04:36.493Z,100780.61
2018-10-07T04:07:06.302Z,100794.65
2018-10-07T04:09:35.999Z,100797.86
2018-10-07T04:12:06.593Z,100794.38
2018-10-07T04:14:36.751Z,100791.89
2018-10-07T04:17:07.999Z,100802.69
2018-10-07T04:19:41.037Z,100804.58
2018-10-07T04:22:10.983Z,100807.32
2018-10-07T04:24:41.782Z,100818.03
2018-10-07T04:27:12.058Z,100831.66
2018-10-07T04:29:42.000Z,100840.12
2018-10-07T04:32:12.061Z,100845.11
2018-10-07T04:34:41.921Z,100851.84
2018-10-07T04:37:11.596Z,100858.28
2018-10-07T04:39:41.586Z,100866.06
2018-10-07T04:42:15.349Z,100875.08
2018-10-07T04:44:45.281Z,100869.17
2018-10-07T04:47:15.423Z,100883.48
2018-10-07T04:49:45.835Z,100890.58
2018-10-07T04:52:17.959Z,100902.09
2018-10-07T04:54:47.836Z,100898.67
2018-10-07T04:57:17.500Z,100906.06
2018-10-07T04:59:47.105Z,100905.55
2018-10-07T05:02:16.822Z,100916.05
2018-10-07T05:04:47.111Z,100911.76
2018-10-07T05:07:16.751Z,100925.77
2018-10-07T05:09:47.744Z,100927.52
2018-10-07T05:12:18.544Z,100938.30
2018-10-07T05:14:48.384Z,100933.13
2018-10-07T05:17:18.348Z,100940.25
2018-10-07T05:19:52.573Z,100943.99
2018-10-07T05:22:22.453Z,100952.03
2018-10-07T05:24:53.146Z,100963.69
2018-10-07T05:27:23.455Z,100963.78
2018-10-07T05:29:53.070Z,100978.87
2018-10-07T05:32:23.040Z,100973.80
2018-10-07T05:34:52.669Z,100975.67
2018-10-07T05:37:22.190Z,100980.72
2018-10-07T05:39:53.909Z,100991.08
2018-10-07T05:42:25.785Z,101001.84
2018-10-07T05:44:56.172Z,101000.31
2018-10-07T05:47:30.856Z,101001.22
2018-10-07T05:50:00.496Z,101009.26
2018-10-07T05:52:30.314Z,101013.27
2018-10-07T05:54:59.762Z,101027.77
2018-10-07T06:00:13.639Z,101045.93
2018-10-07T06:02:45.632Z,101047.80
2018-10-07T06:05:16.116Z,101057.07
2018-10-07T06:07:45.819Z,101053.34
2018-10-07T06:10:15.296Z,101064.56
2018-10-07T06:12:58.008Z,101065.80
2018-10-07T06:15:43.902Z,101069.16
2018-10-07T06:18:13.435Z,101072.67
2018-10-07T06:20:43.245Z,101083.19
2018-10-07T06:23:12.650Z,101091.97
2018-10-07T06:25:42.863Z,101102.27
2018-10-07T06:28:12.277Z,101111.30
2018-10-07T06:30:41.992Z,101125.31
2018-10-07T06:33:11.522Z,101128.42
2018-10-07T06:35:47.462Z,101131.38
2018-10-07T06:38:17.736Z,101138.37
2018-10-07T06:40:47.647Z,101145.80
2018-10-07T06:43:19.231Z,101148.59
2018-10-07T06:45:50.227Z,101164.56
2018-10-07T06:48:20.077Z,101170.50
2018-10-07T06:50:51.447Z,101171.10
2018-10-07T06:53:21.335Z,101176.17
2018-10-07T06:55:53.085Z,101172.73
2018-10-07T06:58:23.233Z,101186.05
2018-10-07T07:00:54.143Z,101202.23
2018-10-07T07:03:29.736Z,101213.12
2018-10-07T07:06:00.315Z,101217.23
2018-10-07T07:08:30.619Z,101222.03
2018-10-07T07:11:00.810Z,101232.47
2018-10-07T07:13:30.508Z,101242.31
2018-10-07T07:16:00.132Z,101253.20
2018-10-07T07:18:30.241Z,101262.75
2018-10-07T07:21:01.323Z,101263.34
2018-10-07T07:23:32.938Z,101275.38
2018-10-07T07:26:04.152Z,101281.86
2018-10-07T07:28:37.943Z,101279.02
2018-10-07T07:31:08.475Z,101291.37
2018-10-07T07:43:03.501Z,101303.43
2018-10-07T07:45:36.444Z,101300.19
2018-10-07T07:48:10.498Z,101304.02
2018-10-07T07:56:35.811Z,101313.95
2018-10-07T07:59:14.146Z,101322.20
2018-10-07T08:01:44.823Z,101327.41
2018-10-07T08:04:15.120Z,101321.66
2018-10-07T08:06:44.934Z,101314.75
2018-10-07T08:09:14.755Z,101310.66
2018-10-07T08:11:44.443Z,101308.73
2018-10-07T08:14:14.828Z,101308.35
2018-10-07T08:16:46.278Z,101304.78
2018-10-07T08:19:17.622Z,101298.56
2018-10-07T08:21:50.292Z,101297.59
2018-10-07T08:24:21.368Z,101301.10
2018-10-07T08:26:51.780Z,101314.22
2018-10-07T08:29:22.884Z,101310.70
2018-10-07T08:31:54.879Z,101318.97
2018-10-07T08:34:25.995Z,101311.56
2018-10-07T08:36:56.980Z,101323.66
2018-10-07T08:39:27.027Z,101336.27
2018-10-07T08:41:56.878Z,101343.39
2018-10-07T08:44:26.545Z,101354.38
2018-10-07T08:46:57.422Z,101356.83
2018-10-07T08:49:27.995Z,101357.96
2018-10-07T08:51:57.870Z,101354.70
2018-10-07T08:54:28.276Z,101352.44
2018-10-07T08:56:58.285Z,101357.16
2018-10-07T08:59:27.814Z,101350.94
2018-10-07T09:02:00.388Z,101343.69
2018-10-07T09:04:30.382Z,101350.71
2018-10-07T09:07:00.293Z,101349.84
2018-10-07T09:09:30.057Z,101346.50
2018-10-07T09:11:59.881Z,101353.69
2018-10-07T09:14:30.546Z,101359.70
2018-10-07T09:16:59.923Z,101356.80
2018-10-07T09:19:29.431Z,101357.28
2018-10-07T09:21:58.846Z,101362.52
2018-10-07T09:24:28.842Z,101371.81
2018-10-07T09:26:58.213Z,101377.48
2018-10-07T09:29:28.008Z,101378.12
2018-10-07T09:31:58.027Z,101367.58
2018-10-07T09:34:28.146Z,101372.88
2018-10-07T09:36:58.170Z,101374.90
2018-10-07T09:39:27.627Z,101385.05
2018-10-07T09:41:58.306Z,101375.95
2018-10-07T09:44:27.653Z,101367.59
2018-10-07T09:46:57.201Z,101369.48
2018-10-07T09:49:26.902Z,101378.53
2018-10-07T09:51:57.554Z,101379.19
2018-10-07T09:54:27.374Z,101371.37
2018-10-07T09:56:57.256Z,101379.50
2018-10-07T09:59:27.011Z,101376.09
2018-10-07T10:01:57.379Z,101377.50
2018-10-07T10:04:28.142Z,101383.31
2018-10-07T10:06:57.897Z,101382.31
2018-10-07T10:09:27.477Z,101381.94
2018-10-07T10:11:57.497Z,101386.22
2018-10-07T10:14:27.209Z,101388.58
2018-10-07T10:17:00.987Z,101393.50
2018-10-07T10:19:38.292Z,101402.55
2018-10-07T10:24:20.250Z,101389.82
2018-10-07T10:27:33.556Z,101400.81
2018-10-07T10:30:07.589Z,101396.59
2018-10-07T10:32:47.275Z,101401.61
2018-10-07T10:36:24.893Z,101404.19
2018-10-07T10:39:06.060Z,101398.47
2018-10-07T10:42:48.426Z,101406.68
2018-10-07T10:45:35.891Z,101404.98
2018-10-07T10:48:44.720Z,101402.50
2018-10-07T10:52:21.846Z,101423.37
2018-10-07T10:56:03.625Z,101423.20
2018-10-07T10:58:40.389Z,101422.67
2018-10-07T11:01:17.573Z,101428.06
2018-10-07T11:03:56.708Z,101429.14
2018-10-07T11:06:47.304Z,101425.48
2018-10-07T11:09:26.664Z,101433.75
2018-10-07T11:12:04.977Z,101435.70
2018-10-07T11:14:45.552Z,101444.46
2018-10-07T11:19:35.378Z,101435.66
2018-10-07T11:22:26.489Z,101435.16
2018-10-07T11:25:06.997Z,101437.94
2018-10-07T11:27:59.212Z,101443.30
2018-10-07T11:31:05.102Z,101448.48
2018-10-07T11:34:03.115Z,101444.00
2018-10-07T11:38:52.691Z,101446.98
2018-10-07T11:42:31.121Z,101445.89
2018-10-07T11:45:08.962Z,101441.33
2018-10-07T11:48:03.242Z,101445.33
2018-10-07T11:50:41.634Z,101429.38
2018-10-07T11:53:30.286Z,101436.48
2018-10-07T11:55:59.879Z,101437.23
2018-10-07T11:58:29.351Z,101444.63
2018-10-07T12:00:59.003Z,101442.20
2018-10-07T12:03:29.290Z,101429.28
2018-10-07T12:05:59.072Z,101418.47
2018-10-07T12:08:39.387Z,101421.07
2018-10-07T12:11:11.257Z,101425.55
2018-10-07T12:13:40.756Z,101420.38
2018-10-07T12:16:12.385Z,101428.02
2018-10-07T12:18:41.791Z,101419.94
2018-10-07T12:21:11.410Z,101421.34
2018-10-07T12:23:40.814Z,101422.94
2018-10-07T12:26:11.150Z,101421.78
2018-10-07T12:28:40.712Z,101432.95
2018-10-07T12:31:09.927Z,101433.02
2018-10-07T12:33:39.566Z,101436.77
2018-10-07T12:36:09.608Z,101437.40
2018-10-07T12:38:39.008Z,101434.31
2018-10-07T12:41:08.746Z,101442.31
2018-10-07T12:43:38.488Z,101424.08
2018-10-07T12:46:08.079Z,101427.22
2018-10-07T12:48:37.432Z,101433.72
2018-10-07T12:51:07.425Z,101426.11
2018-10-07T12:53:37.101Z,101415.64
2018-10-07T12:56:09.331Z,101409.28
2018-10-07T12:58:39.879Z,101421.38
2018-10-07T13:01:09.224Z,101446.80
2018-10-07T13:03:38.697Z,101450.36
2018-10-07T13:06:08.077Z,101453.61
2018-10-07T13:08:38.314Z,101456.02
2018-10-07T13:11:08.229Z,101444.91
2018-10-07T13:13:37.609Z,101435.92
2018-10-07T13:16:07.261Z,101437.36
2018-10-07T13:18:36.787Z,101443.31
2018-10-07T13:21:06.808Z,101443.58
2018-10-07T13:23:36.384Z,101442.03
2018-10-07T13:26:06.151Z,101441.89
2018-10-07T13:28:35.557Z,101441.08
2018-10-07T13:31:05.523Z,101438.00
2018-10-07T13:33:35.671Z,101442.19
2018-10-07T13:36:06.423Z,101453.11
2018-10-07T13:38:35.848Z,101450.08
2018-10-07T13:41:05.671Z,101449.95
2018-10-07T13:43:35.250Z,101451.95
2018-10-07T13:46:04.838Z,101460.50
2018-10-07T13:48:34.277Z,101451.74
2018-10-07T13:51:03.886Z,101460.69
2018-10-07T13:53:33.306Z,101459.48
2018-10-07T13:56:02.732Z,101461.34
2018-10-07T13:58:32.079Z,101453.72
2018-10-07T14:01:01.501Z,101456.63
2018-10-07T14:03:31.134Z,101458.88
2018-10-07T14:06:00.552Z,101452.05
2018-10-07T14:08:30.001Z,101448.60
2018-10-07T14:11:00.021Z,101462.59
2018-10-07T14:13:30.201Z,101458.14
2018-10-07T14:15:59.753Z,101459.23
2018-10-07T14:18:29.410Z,101460.23
2018-10-07T14:20:58.811Z,101463.59
2018-10-07T14:23:28.301Z,101465.38
2018-10-07T14:25:57.570Z,101469.61
2018-10-07T14:28:26.984Z,101468.31
2018-10-07T14:30:56.666Z,101473.05
2018-10-07T14:33:26.020Z,101473.22
2018-10-07T14:35:55.378Z,101472.46
2018-10-07T14:38:24.876Z,101475.73
2018-10-07T14:40:54.385Z,101478.52
2018-10-07T14:43:25.553Z,101484.63
2018-10-07T14:45:55.033Z,101489.91
2018-10-07T14:48:24.518Z,101488.98
2018-10-07T14:50:54.590Z,101481.81
2018-10-07T14:53:24.578Z,101481.64
2018-10-07T14:55:54.090Z,101472.50
2018-10-07T14:58:24.760Z,101474.43
2018-10-07T15:00:54.345Z,101473.58
2018-10-07T15:03:24.127Z,101479.58
2018-10-07T15:05:53.775Z,101476.92
2018-10-07T15:08:23.498Z,101474.26
2018-10-07T15:10:56.316Z,101480.84
2018-10-07T15:13:25.998Z,101473.23
2018-10-07T15:15:55.293Z,101474.36
2018-10-07T15:18:25.045Z,101476.75
2018-10-07T15:20:55.073Z,101474.26
2018-10-07T15:23:24.768Z,101481.61
2018-10-07T15:25:54.366Z,101482.27
2018-10-07T15:28:23.705Z,101477.59
2018-10-07T15:30:53.127Z,101489.41
2018-10-07T15:33:22.532Z,101484.07
2018-10-07T15:35:52.239Z,101493.31
2018-10-07T15:38:21.725Z,101485.02
2018-10-07T15:40:51.239Z,101487.39
2018-10-07T15:43:20.661Z,101492.73
2018-10-07T15:45:51.700Z,101493.39
2018-10-07T15:48:21.493Z,101498.88
2018-10-07T15:50:51.290Z,101493.42
2018-10-07T15:53:21.046Z,101496.92
2018-10-07T15:55:50.947Z,101496.55
2018-10-07T15:58:20.965Z,101490.87
2018-10-07T16:00:50.703Z,101491.52
2018-10-07T16:03:20.322Z,101485.91
2018-10-07T16:05:49.943Z,101480.35
2018-10-07T16:08:20.546Z,101492.05
2018-10-07T16:10:50.073Z,101490.41
2018-10-07T16:13:20.573Z,101494.41
2018-10-07T16:15:50.265Z,101497.00
2018-10-07T16:18:19.830Z,101498.14
2018-10-07T16:20:49.439Z,101504.91
2018-10-07T16:23:19.733Z,101511.66
2018-10-07T16:25:50.285Z,101514.75
2018-10-07T16:28:21.424Z,101517.05
2018-10-07T16:30:51.990Z,101521.52
2018-10-07T16:33:21.649Z,101521.08
2018-10-07T16:35:51.183Z,101511.07
2018-10-07T16:38:20.954Z,101512.05
2018-10-07T16:40:50.538Z,101516.36
2018-10-07T16:43:20.210Z,101521.23
2018-10-07T16:45:49.681Z,101520.33
2018-10-07T16:48:19.523Z,101515.14
2018-10-07T16:50:49.962Z,101522.05
2018-10-07T16:53:19.530Z,101522.45
2018-10-07T16:55:50.033Z,101528.65
2018-10-07T16:58:19.454Z,101538.28
2018-10-07T17:00:49.095Z,101540.40
2018-10-07T17:10:03.893Z,101560.42
2018-10-07T17:12:35.020Z,101553.19
2018-10-07T17:15:04.569Z,101556.00
2018-10-07T17:17:34.457Z,101553.80
2018-10-07T17:20:03.908Z,101554.02
2018-10-07T17:22:33.509Z,101556.25
2018-10-07T17:25:03.886Z,101561.58
2018-10-07T17:27:33.315Z,101560.80
2018-10-07T17:30:02.890Z,101556.97
2018-10-07T17:32:32.470Z,101568.05
2018-10-07T17:35:02.141Z,101569.34
2018-10-07T17:37:31.745Z,101573.09
2018-10-07T17:40:01.536Z,101582.02
2018-10-07T17:42:32.256Z,101590.28
2018-10-07T17:45:01.694Z,101588.66
2018-10-07T17:47:31.925Z,101595.36
2018-10-07T17:50:01.467Z,101600.34
2018-10-07T17:52:31.916Z,101600.64
2018-10-07T17:55:05.573Z,101604.23
2018-10-07T17:57:38.651Z,101603.44
2018-10-07T18:00:09.077Z,101607.23
2018-10-07T18:02:40.732Z,101612.77
2018-10-07T18:05:22.154Z,101612.00
2018-10-07T18:08:02.816Z,101612.14
2018-10-07T18:10:35.637Z,101618.92
2018-10-07T18:13:09.243Z,101612.41
2018-10-07T18:15:40.645Z,101612.63
2018-10-07T18:18:11.486Z,101612.45
2018-10-07T18:20:43.554Z,101610.89
2018-10-07T18:23:14.980Z,101611.73
2018-10-07T18:25:45.556Z,101612.41
2018-10-07T18:28:16.415Z,101618.05
2018-10-07T18:30:47.744Z,101619.73
2018-10-07T18:33:18.464Z,101623.37
2018-10-07T18:35:49.292Z,101631.81
2018-10-07T18:40:58.174Z,101638.24
2018-10-07T18:43:44.372Z,101637.06
2018-10-07T18:46:34.029Z,101646.03
2018-10-07T18:49:24.221Z,101641.42
2018-10-07T18:53:16.908Z,101638.91
2018-10-07T18:56:15.443Z,101644.28
2018-10-07T18:58:50.593Z,101645.81
2018-10-07T19:01:21.389Z,101651.64
2018-10-07T19:03:53.728Z,101648.85
2018-10-07T19:06:25.557Z,101648.45
2018-10-07T19:08:56.375Z,101647.86
2018-10-07T19:11:26.398Z,101651.23
2018-10-07T19:13:56.389Z,101650.78
2018-10-07T19:16:25.759Z,101653.38
2018-10-07T19:18:55.455Z,101659.85
2018-10-07T19:21:25.186Z,101660.59
2018-10-07T19:23:56.854Z,101652.42
2018-10-07T19:26:26.852Z,101650.71
2018-10-07T19:28:57.206Z,101648.78
2018-10-07T19:31:30.939Z,101651.56
2018-10-07T19:34:03.546Z,101651.23
2018-10-07T19:36:35.107Z,101653.47
2018-10-07T19:39:06.423Z,101643.94
2018-10-07T19:41:37.151Z,101654.27
2018-10-07T19:44:09.105Z,101651.34
2018-10-07T19:49:10.496Z,101648.69
2018-10-07T19:51:41.962Z,101650.72
2018-10-07T19:54:12.969Z,101648.56
2018-10-07T19:56:43.595Z,101647.56
2018-10-07T19:59:14.859Z,101645.23
2018-10-07T20:01:45.613Z,101645.48
2018-10-07T20:04:15.205Z,101644.35
2018-10-07T20:06:46.876Z,101652.75
2018-10-07T20:09:16.640Z,101643.16
2018-10-07T20:11:46.312Z,101631.56
2018-10-07T20:14:15.889Z,101637.63
2018-10-07T20:16:45.779Z,101632.91
2018-10-07T20:19:15.292Z,101633.03
2018-10-07T20:21:44.918Z,101635.23
2018-10-07T20:24:14.914Z,101633.70
2018-10-07T20:26:44.691Z,101639.06
2018-10-07T20:29:14.278Z,101644.89
2018-10-07T20:31:44.844Z,101643.81
2018-10-07T20:34:15.505Z,101647.48
2018-10-07T20:36:45.010Z,101652.41
2018-10-07T20:39:15.566Z,101649.83
2018-10-07T20:41:45.304Z,101647.06
2018-10-07T20:44:14.742Z,101645.86
2018-10-07T20:46:44.439Z,101644.59
2018-10-07T20:49:14.047Z,101645.08
2018-10-07T20:51:43.809Z,101648.62
2018-10-07T20:54:13.286Z,101644.78
2018-10-07T20:56:43.145Z,101643.13
2018-10-07T20:59:13.665Z,101646.66
2018-10-07T21:01:42.998Z,101643.19
2018-10-07T21:04:17.300Z,101641.48
2018-10-07T21:06:49.340Z,101642.80
2018-10-07T21:09:19.840Z,101636.76
2018-10-07T21:11:49.327Z,101639.47
2018-10-07T21:14:27.349Z,101647.80
2018-10-07T21:17:10.591Z,101639.98
2018-10-07T21:19:48.569Z,101640.09
2018-10-07T21:22:25.780Z,101634.98
2018-10-07T21:25:06.355Z,101637.81
2018-10-07T21:27:42.612Z,101629.58
2018-10-07T21:30:13.619Z,101635.47
2018-10-07T21:32:52.987Z,101623.27
2018-10-07T21:35:31.619Z,101627.19
2018-10-07T21:38:15.211Z,101632.42
2018-10-07T21:40:44.752Z,101634.64
2018-10-07T21:43:15.476Z,101636.50
2018-10-07T21:45:44.953Z,101635.75
2018-10-07T21:48:14.492Z,101638.84
2018-10-07T21:53:17.024Z,101638.69
2018-10-07T21:55:47.205Z,101638.74
2018-10-07T21:58:17.823Z,101637.67
2018-10-07T22:00:47.387Z,101642.56
2018-10-07T22:03:17.039Z,101638.33
2018-10-07T22:05:47.442Z,101634.42
2018-10-07T22:08:17.862Z,101636.08
2018-10-07T22:10:48.191Z,101637.90
2018-10-07T22:13:18.472Z,101629.64
2018-10-07T22:15:48.949Z,101627.11
2018-10-07T22:18:19.147Z,101625.02
2018-10-07T22:20:49.443Z,101620.30
2018-10-07T22:23:20.106Z,101620.58
2018-10-07T22:25:50.582Z,101615.30
2018-10-07T22:28:22.092Z,101614.09
2018-10-07T22:30:52.589Z,101621.25
2018-10-07T22:33:22.897Z,101622.63
2018-10-07T22:35:53.358Z,101616.95
2018-10-07T22:38:24.268Z,101616.13
2018-10-07T22:40:55.808Z,101626.37
2018-10-07T22:43:28.171Z,101630.33
2018-10-07T22:46:00.858Z,101629.06
2018-10-07T22:48:33.992Z,101626.53
2018-10-07T22:51:04.777Z,101624.39
2018-10-07T22:53:35.444Z,101630.59
2018-10-07T22:56:06.528Z,101633.23
2018-10-07T22:58:36.864Z,101632.31
2018-10-07T23:01:06.777Z,101628.41
2018-10-07T23:03:37.192Z,101633.58
2018-10-07T23:06:08.719Z,101633.30
2018-10-07T23:08:38.962Z,101632.08
2018-10-07T23:11:10.353Z,101631.60
2018-10-07T23:13:40.029Z,101631.71
2018-10-07T23:16:10.177Z,101636.66
2018-10-07T23:18:40.193Z,101632.34
2018-10-07T23:21:11.879Z,101631.60
2018-10-07T23:23:42.048Z,101630.39
2018-10-07T23:26:12.458Z,101627.86
2018-10-07T23:28:44.185Z,101627.86
2018-10-07T23:31:16.225Z,101624.95
2018-10-07T23:33:50.141Z,101622.75
2018-10-07T23:36:24.870Z,101625.05
2018-10-07T23:38:55.350Z,101632.63
2018-10-07T23:41:25.882Z,101630.88
2018-10-07T23:43:57.268Z,101632.84
2018-10-07T23:46:27.625Z,101631.97
2018-10-07T23:48:57.437Z,101644.39
2018-10-07T23:51:27.893Z,101640.53
2018-10-07T23:53:57.140Z,101634.04
2018-10-07T23:56:29.211Z,101638.00
2018-10-07T23:59:02.667Z,101644.25
